Time;durP1;ratioP1;P1;durP2;ratioP2;P2;SDS_P1;SDS_P2;PMS_P1;PMS_P2;Temp;Humidity;BMP_temperature;BMP_pressure;BME280_temperature;BME280_humidity;BME280_pressure;Samples;Min_cycle;Max_cycle;Signal;HPM_P1;HPM_P2
2024/04/18 00:00:44;;;;;;;0.90;0.90;;;;;;;3.59;97.84;98011.94;5221599;27;20009;-94
2024/04/18 00:03:10;;;;;;;0.80;0.80;;;;;;;3.66;97.65;98008.78;5247540;27;19995;-93
2024/04/18 00:05:35;;;;;;;0.90;0.90;;;;;;;3.66;97.67;98008.78;5248331;27;20289;-92
2024/04/18 00:08:01;;;;;;;0.80;0.80;;;;;;;3.71;96.12;98009.88;5241513;27;19999;-92
2024/04/18 00:10:26;;;;;;;0.80;0.80;;;;;;;3.74;96.30;98009.13;5244049;27;20003;-91
2024/04/18 00:12:52;;;;;;;0.90;0.90;;;;;;;3.65;96.15;98017.53;5220425;27;19998;-92
2024/04/18 00:15:23;;;;;;;0.80;0.80;;;;;;;3.72;96.31;98016.94;5245958;27;20006;-91
2024/04/18 00:17:55;;;;;;;0.80;0.80;;;;;;;3.77;96.17;98017.16;5245905;27;20002;-91
2024/04/18 00:20:24;;;;;;;0.80;0.80;;;;;;;3.80;96.61;98015.56;5246359;27;20002;-92
2024/04/18 00:22:50;;;;;;;0.90;0.90;;;;;;;3.89;96.50;98022.06;5246504;27;20006;-90
2024/04/18 00:25:16;;;;;;;0.80;0.80;;;;;;;3.93;96.78;98031.91;5245637;27;19999;-93
2024/04/18 00:27:52;;;;;;;0.80;0.80;;;;;;;3.96;97.21;98019.75;5250596;27;19995;-91
2024/04/18 00:30:41;;;;;;;0.87;0.87;;;;;;;3.99;96.96;98019.00;5212696;27;20003;-92
2024/04/18 00:33:06;;;;;;;0.80;0.80;;;;;;;4.01;96.68;98022.59;5234981;27;20086;-91
2024/04/18 00:35:38;;;;;;;0.80;0.80;;;;;;;4.03;96.37;98023.56;5246571;27;20043;-92
2024/04/18 00:38:14;;;;;;;0.80;0.80;;;;;;;3.93;96.69;98016.06;5245170;27;20013;-91
2024/04/18 00:40:39;;;;;;;0.80;0.80;;;;;;;3.92;96.59;98015.16;5220181;27;20017;-92
2024/04/18 00:43:15;;;;;;;0.82;0.82;;;;;;;3.96;96.21;98016.22;5250144;27;20043;-91
2024/04/18 00:45:41;;;;;;;0.80;0.80;;;;;;;3.96;96.64;98016.22;5247519;27;20564;-90
2024/04/18 00:48:29;;;;;;;0.80;0.80;;;;;;;3.86;96.92;98010.53;5245359;27;20003;-91
2024/04/18 00:50:59;;;;;;;0.80;0.80;;;;;;;3.91;96.83;98010.72;5249273;27;20003;-91
2024/04/18 00:53:27;;;;;;;0.88;0.88;;;;;;;4.01;96.33;98017.31;5216203;27;20022;-90
2024/04/18 00:55:53;;;;;;;0.80;0.80;;;;;;;4.04;96.50;98020.09;5245365;27;20007;-92
2024/04/18 00:58:40;;;;;;;0.80;0.80;;;;;;;3.99;96.30;98019.00;5250215;27;19994;-91
2024/04/18 01:01:19;;;;;;;0.90;0.90;;;;;;;4.04;96.20;98015.72;5247204;27;20279;-90
2024/04/18 01:03:57;;;;;;;0.80;0.80;;;;;;;4.04;95.93;98018.34;5220074;27;20123;-92
2024/04/18 01:06:39;;;;;;;0.90;0.90;;;;;;;4.04;95.57;98018.34;5241209;27;19994;-91
2024/04/18 01:09:14;;;;;;;0.80;0.80;;;;;;;4.19;95.43;98022.47;5248938;27;20104;-91
2024/04/18 01:12:00;;;;;;;0.90;0.90;;;;;;;4.09;94.62;98024.72;5246347;27;20605;-91
2024/04/18 01:14:25;;;;;;;0.80;0.80;;;;;;;4.11;94.38;98016.88;5248952;27;20006;-93
2024/04/18 01:17:04;;;;;;;0.82;0.82;;;;;;;4.25;93.33;98012.19;5245454;27;20366;-92
2024/04/18 01:19:30;;;;;;;0.90;0.90;;;;;;;4.22;92.31;98012.97;5282241;26;20007;-90
2024/04/18 01:21:56;;;;;;;0.88;0.88;;;;;;;4.07;92.38;98014.94;5247053;27;20046;-91
2024/04/18 01:24:22;;;;;;;0.70;0.70;;;;;;;4.13;92.55;98023.13;5238373;27;20010;-91
2024/04/18 01:26:47;;;;;;;0.80;0.80;;;;;;;4.08;92.95;98016.75;5218105;27;20306;-90
2024/04/18 01:29:13;;;;;;;0.80;0.80;;;;;;;4.07;93.16;98022.84;5215429;27;20100;-90
2024/04/18 01:31:57;;;;;;;0.70;0.70;;;;;;;4.13;91.98;98025.78;5241407;27;20017;-89
2024/04/18 01:34:22;;;;;;;0.80;0.80;;;;;;;4.13;91.48;98031.06;5240827;27;20030;-91
2024/04/18 01:36:48;;;;;;;0.80;0.80;;;;;;;4.23;90.93;98022.69;5247147;27;20691;-91
2024/04/18 01:39:26;;;;;;;0.80;0.80;;;;;;;4.26;90.13;98025.44;5245199;27;20006;-91
2024/04/18 01:42:02;;;;;;;0.80;0.80;;;;;;;4.27;89.73;98029.91;5238699;27;20101;-92
2024/04/18 01:44:46;;;;;;;0.80;0.80;;;;;;;4.28;89.14;98023.78;5223320;27;20523;-92
2024/04/18 01:47:31;;;;;;;0.80;0.80;;;;;;;4.36;88.72;98025.00;5249535;27;20047;-91
2024/04/18 01:50:09;;;;;;;0.80;0.80;;;;;;;4.41;87.06;98026.91;5289590;26;20487;-91
2024/04/18 01:52:38;;;;;;;0.90;0.90;;;;;;;4.36;86.49;98025.00;5255399;27;20007;-90
2024/04/18 01:55:05;;;;;;;0.80;0.80;;;;;;;4.30;87.03;98022.09;5227389;27;20002;-92
2024/04/18 01:57:37;;;;;;;0.80;0.80;;;;;;;4.28;88.03;98026.41;5253982;27;20308;-92
2024/04/18 02:00:21;;;;;;;0.80;0.80;;;;;;;4.28;87.58;98031.69;5250153;27;20066;-91
2024/04/18 02:02:47;;;;;;;0.90;0.90;;;;;;;4.14;88.65;98043.41;5278128;27;20022;-91
2024/04/18 02:05:32;;;;;;;0.90;0.90;;;;;;;4.23;87.63;98033.25;5254363;27;20065;-92
2024/04/18 02:08:12;;;;;;;0.80;0.80;;;;;;;4.18;88.63;98040.06;5226608;27;20016;-91
2024/04/18 02:10:43;;;;;;;0.80;0.80;;;;;;;4.26;87.71;98040.38;5253241;27;20046;-90
2024/04/18 02:13:29;;;;;;;0.90;0.90;;;;;;;4.18;88.42;98036.53;5250742;27;20084;-91
2024/04/18 02:15:54;;;;;;;0.80;0.80;;;;;;;4.19;88.51;98046.25;5252370;27;20102;-91
2024/04/18 02:18:20;;;;;;;0.90;0.90;;;;;;;4.23;87.05;98045.53;5253020;27;20209;-89
2024/04/18 02:20:45;;;;;;;0.82;0.82;;;;;;;4.23;86.69;98048.19;5251563;27;20322;-91
2024/04/18 02:23:22;;;;;;;0.90;0.90;;;;;;;4.07;86.99;98050.16;5271508;27;20002;-92
2024/04/18 02:25:49;;;;;;;0.80;0.80;;;;;;;4.11;87.71;98044.16;5263803;27;20677;-92
2024/04/18 02:28:14;;;;;;;0.98;0.98;;;;;;;4.03;88.15;98045.59;5243245;27;20013;-90
2024/04/18 02:30:40;;;;;;;0.88;0.88;;;;;;;4.07;88.32;98049.25;5270456;27;20002;-92
2024/04/18 02:33:09;;;;;;;0.80;0.80;;;;;;;4.11;88.87;98048.53;5265872;27;20006;-93
2024/04/18 02:35:43;;;;;;;0.90;0.90;;;;;;;4.05;88.59;98043.00;5268114;27;20088;-90
2024/04/18 02:38:29;;;;;;;0.88;0.88;;;;;;;3.97;89.33;98045.28;5269250;27;20015;-93
2024/04/18 02:41:05;;;;;;;0.90;0.90;;;;;;;3.99;89.36;98048.03;5243469;27;20020;-92
2024/04/18 02:43:50;;;;;;;0.90;0.90;;;;;;;3.90;90.07;98045.88;5241077;27;20477;-93
2024/04/18 02:46:16;;;;;;;1.00;1.00;;;;;;;3.94;89.58;98054.84;5292530;26;20014;-93
2024/04/18 02:49:01;;;;;;;0.80;0.80;;;;;;;3.95;88.99;98048.72;5271493;27;19998;-92
2024/04/18 02:51:27;;;;;;;0.80;0.80;;;;;;;3.91;89.41;98046.78;5265831;27;20014;-92
2024/04/18 02:54:10;;;;;;;0.80;0.80;;;;;;;3.98;88.70;98043.59;5273470;27;20014;-92
2024/04/18 02:56:36;;;;;;;0.90;0.90;;;;;;;3.84;88.97;98045.63;5276423;27;20018;-92
2024/04/18 02:59:08;;;;;;;0.90;0.90;;;;;;;3.93;88.92;98045.09;5242054;27;20002;-91
2024/04/18 03:01:46;;;;;;;0.80;0.80;;;;;;;3.81;89.28;98048.13;5271119;27;20021;-93
2024/04/18 03:04:12;;;;;;;0.80;0.80;;;;;;;3.85;89.75;98045.69;5275056;27;20007;-92
2024/04/18 03:06:37;;;;;;;0.90;0.90;;;;;;;3.79;89.88;98045.41;5273201;27;19999;-92
2024/04/18 03:09:10;;;;;;;0.90;0.90;;;;;;;3.87;90.12;98045.75;5260500;27;20562;-93
2024/04/18 03:11:51;;;;;;;0.90;0.90;;;;;;;3.84;90.17;98042.97;5277800;26;20006;-92
2024/04/18 03:14:17;;;;;;;0.80;0.80;;;;;;;3.78;90.17;98040.06;5268652;27;20021;-93
2024/04/18 03:16:58;;;;;;;0.82;0.82;;;;;;;3.87;89.80;98045.75;5240514;27;20013;-93
2024/04/18 03:19:43;;;;;;;0.90;0.90;;;;;;;3.83;89.73;98046.44;5268318;27;20018;-93
2024/04/18 03:22:24;;;;;;;0.90;0.90;;;;;;;3.85;89.73;98044.78;5265499;27;20009;-91
2024/04/18 03:25:01;;;;;;;0.90;0.90;;;;;;;3.75;90.30;98047.84;5267714;27;20324;-92
2024/04/18 03:27:30;;;;;;;0.90;0.90;;;;;;;3.83;90.19;98052.63;5234631;27;20019;-92
2024/04/18 03:29:56;;;;;;;0.90;0.90;;;;;;;3.85;90.19;98045.69;5260671;27;20010;-93
2024/04/18 03:32:32;;;;;;;0.90;0.90;;;;;;;3.84;90.25;98049.16;5234690;27;20003;-93
2024/04/18 03:34:58;;;;;;;1.00;1.00;;;;;;;3.83;90.09;98051.72;5268540;27;20002;-92
2024/04/18 03:37:23;;;;;;;0.90;0.90;;;;;;;3.96;89.96;98047.88;5237583;27;20013;-93
2024/04/18 03:39:49;;;;;;;0.90;0.90;;;;;;;3.91;90.56;98052.97;5270126;27;20003;-93
2024/04/18 03:42:14;;;;;;;0.90;0.90;;;;;;;3.93;90.45;98053.00;5265338;27;20143;-92
2024/04/18 03:44:53;;;;;;;1.00;1.00;;;;;;;3.80;90.77;98057.78;5262508;27;19994;-93
2024/04/18 03:47:19;;;;;;;1.00;1.00;;;;;;;3.89;90.46;98059.03;5261355;27;20073;-90
2024/04/18 03:50:04;;;;;;;0.90;0.90;;;;;;;3.96;89.45;98061.06;5273826;27;20017;-90
2024/04/18 03:52:39;;;;;;;0.80;0.80;;;;;;;3.93;90.60;98056.59;5279195;27;20002;-90
2024/04/18 03:55:23;;;;;;;0.90;0.90;;;;;;;3.85;90.73;98057.97;5279605;27;20005;-90
2024/04/18 03:57:48;;;;;;;0.90;0.90;;;;;;;3.88;90.38;98051.91;5254186;27;20002;-90
2024/04/18 04:00:14;;;;;;;0.90;0.90;;;;;;;3.78;90.75;98072.59;5281150;27;20313;-90
2024/04/18 04:02:40;;;;;;;0.90;0.90;;;;;;;3.88;90.81;98075.66;5282473;27;20592;-90
2024/04/18 04:05:05;;;;;;;0.90;0.90;;;;;;;3.81;90.57;98075.41;5287046;27;20010;-91
2024/04/18 04:07:31;;;;;;;0.90;0.90;;;;;;;3.90;90.79;98080.19;5255860;27;20009;-91
2024/04/18 04:09:56;;;;;;;0.90;0.90;;;;;;;3.85;90.48;98082.63;5281496;27;20049;-92
2024/04/18 04:12:21;;;;;;;0.80;0.80;;;;;;;3.94;90.25;98086.50;5274122;27;20014;-94
2024/04/18 04:15:06;;;;;;;0.80;0.80;;;;;;;3.93;91.06;98084.69;5289178;27;20011;-93
2024/04/18 04:17:32;;;;;;;0.80;0.80;;;;;;;3.90;91.14;98089.84;5281906;27;19998;-94
2024/04/18 04:20:07;;;;;;;0.80;0.80;;;;;;;4.04;90.83;98094.91;5279348;27;20010;-92
2024/04/18 04:22:32;;;;;;;0.80;0.80;;;;;;;4.09;89.68;98095.09;5286337;27;19998;-92
2024/04/18 04:25:18;;;;;;;0.80;0.80;;;;;;;4.00;89.38;98105.25;5284003;27;20009;-92
2024/04/18 04:27:43;;;;;;;0.80;0.80;;;;;;;3.95;90.35;98104.16;5281896;27;20025;-93
2024/04/18 04:30:09;;;;;;;0.90;0.90;;;;;;;3.99;90.04;98108.72;5283938;27;19999;-92
2024/04/18 04:32:35;;;;;;;0.90;0.90;;;;;;;3.98;88.73;98109.56;5259841;27;20683;-92
2024/04/18 04:35:20;;;;;;;0.90;0.90;;;;;;;3.97;87.80;98116.56;5279574;27;20006;-92
2024/04/18 04:37:46;;;;;;;0.90;0.90;;;;;;;4.01;87.42;98114.97;5263783;27;20003;-92
2024/04/18 04:40:11;;;;;;;0.90;0.90;;;;;;;3.96;88.05;98117.41;5278149;27;20322;-92
2024/04/18 04:42:37;;;;;;;0.90;0.90;;;;;;;3.89;88.81;98122.34;5276457;27;20013;-93
2024/04/18 04:45:02;;;;;;;0.80;0.80;;;;;;;3.98;88.30;98125.41;5276338;27;20006;-92
2024/04/18 04:47:28;;;;;;;0.80;0.80;;;;;;;3.92;89.06;98125.09;5275633;27;20010;-94
2024/04/18 04:49:53;;;;;;;0.80;0.80;;;;;;;3.90;88.99;98129.44;5270193;27;20003;-94
2024/04/18 04:52:34;;;;;;;0.90;0.90;;;;;;;4.06;87.84;98130.16;5249565;27;20003;-93
2024/04/18 04:55:16;;;;;;;0.80;0.80;;;;;;;3.97;87.62;98132.38;5271516;27;20003;-94
2024/04/18 04:57:41;;;;;;;0.90;0.90;;;;;;;4.00;87.16;98134.28;5272194;27;20022;-94
2024/04/18 05:00:21;;;;;;;0.80;0.80;;;;;;;3.97;87.00;98144.69;5247951;27;20007;-94
2024/04/18 05:02:57;;;;;;;0.80;0.80;;;;;;;3.99;86.84;98148.31;5279342;27;20010;-94
2024/04/18 05:05:43;;;;;;;1.00;1.00;;;;;;;4.04;86.17;98147.69;5268764;27;20380;-95
2024/04/18 05:08:08;;;;;;;0.90;0.90;;;;;;;4.06;85.80;98153.91;5274327;27;20018;-91
2024/04/18 05:10:44;;;;;;;0.90;0.90;;;;;;;4.16;86.08;98149.97;5275897;27;19994;-93
2024/04/18 05:13:12;;;;;;;0.90;0.90;;;;;;;4.09;86.42;98161.09;5244900;27;20081;-94
2024/04/18 05:15:42;;;;;;;0.80;0.80;;;;;;;3.99;86.90;98165.06;5274996;27;20054;-94
2024/04/18 05:18:32;;;;;;;0.90;0.90;;;;;;;4.08;87.63;98159.28;5277061;26;19998;-94
2024/04/18 05:20:57;;;;;;;0.80;0.80;;;;;;;4.14;86.79;98167.47;5248199;27;20018;-93
2024/04/18 05:23:23;;;;;;;0.90;0.90;;;;;;;3.97;88.05;98173.72;5271967;27;20046;-93
2024/04/18 05:25:49;;;;;;;0.93;0.93;;;;;;;4.18;87.56;98169.44;5280706;27;20017;-94
2024/04/18 05:28:29;;;;;;;0.90;0.90;;;;;;;4.21;87.85;98174.81;5271705;27;20003;-93
2024/04/18 05:31:01;;;;;;;0.80;0.80;;;;;;;4.33;86.52;98175.38;5277656;27;21314;-93
2024/04/18 05:33:31;;;;;;;0.80;0.80;;;;;;;4.40;86.28;98175.66;5249829;27;20041;-94
2024/04/18 05:35:56;;;;;;;0.90;0.90;;;;;;;4.35;85.31;98180.72;5274220;27;20050;-93
2024/04/18 05:38:22;;;;;;;0.90;0.90;;;;;;;4.23;86.61;98180.19;5275473;27;20034;-93
2024/04/18 05:40:48;;;;;;;0.90;0.90;;;;;;;4.28;86.01;98183.94;5267214;27;20050;-92
2024/04/18 05:43:14;;;;;;;0.97;0.97;;;;;;;4.42;85.42;98187.19;5272996;27;20010;-94
2024/04/18 05:45:47;;;;;;;0.80;0.80;;;;;;;4.37;86.22;98189.63;5275494;27;20439;-94
2024/04/18 05:48:14;;;;;;;0.90;0.90;;;;;;;4.32;86.64;98196.47;5247902;27;20002;-94
2024/04/18 05:50:40;;;;;;;0.90;0.90;;;;;;;4.30;87.26;98196.38;5282227;27;19994;-91
2024/04/18 05:53:19;;;;;;;0.80;0.80;;;;;;;4.44;86.36;98206.66;5275267;27;20096;-94
2024/04/18 05:55:54;;;;;;;0.80;0.80;;;;;;;4.64;84.38;98197.84;5252079;27;20007;-91
2024/04/18 05:58:19;;;;;;;0.90;0.90;;;;;;;4.58;84.71;98206.41;5270320;27;20158;-93
2024/04/18 06:00:54;;;;;;;0.90;0.90;;;;;;;4.70;84.34;98211.34;5272050;27;20620;-91
2024/04/18 06:03:19;;;;;;;0.80;0.80;;;;;;;4.73;84.27;98221.13;5271363;27;19994;-92
2024/04/18 06:05:45;;;;;;;0.80;0.80;;;;;;;4.75;85.28;98215.09;5242745;27;19998;-93
2024/04/18 06:08:14;;;;;;;0.80;0.80;;;;;;;4.62;83.35;98221.56;5265749;27;20034;-92
2024/04/18 06:10:41;;;;;;;0.80;0.80;;;;;;;4.84;82.71;98220.78;5275245;27;19999;-92
2024/04/18 06:13:17;;;;;;;0.90;0.90;;;;;;;5.02;81.45;98217.09;5268277;27;20007;-93
2024/04/18 06:15:43;;;;;;;0.90;0.90;;;;;;;5.04;82.24;98226.91;5271916;27;20444;-93
2024/04/18 06:18:10;;;;;;;0.80;0.80;;;;;;;5.27;82.12;98219.94;5268546;27;20004;-93
2024/04/18 06:20:44;;;;;;;0.90;0.90;;;;;;;5.28;81.78;98223.50;5242654;27;19994;-94
2024/04/18 06:23:10;;;;;;;0.80;0.80;;;;;;;5.53;79.53;98225.41;5296899;26;20012;-94
2024/04/18 06:25:36;;;;;;;0.90;0.90;;;;;;;5.58;78.64;98229.13;5277713;27;19998;-93
2024/04/18 06:28:03;;;;;;;0.80;0.80;;;;;;;5.61;78.79;98234.56;5274494;27;20026;-93
2024/04/18 06:30:28;;;;;;;0.90;0.90;;;;;;;5.62;78.60;98237.25;5242917;27;20007;-94
2024/04/18 06:32:54;;;;;;;0.80;0.80;;;;;;;5.74;78.60;98233.28;5264048;27;19994;-93
2024/04/18 06:35:20;;;;;;;0.80;0.80;;;;;;;5.77;78.18;98239.63;5270517;27;20022;-93
2024/04/18 06:37:45;;;;;;;0.80;0.80;;;;;;;5.90;77.93;98238.38;5267793;27;20015;-92
2024/04/18 06:40:11;;;;;;;0.90;0.90;;;;;;;6.27;75.33;98248.63;5243837;27;20008;-94
2024/04/18 06:42:36;;;;;;;0.80;0.80;;;;;;;6.74;74.46;98241.56;5274046;27;20014;-96
2024/04/18 06:45:02;;;;;;;0.80;0.80;;;;;;;6.99;74.00;98256.59;5267598;27;20006;-93
2024/04/18 06:47:27;;;;;;;0.80;0.80;;;;;;;6.97;73.33;98252.09;5271703;27;20017;-93
2024/04/18 06:50:08;;;;;;;0.80;0.80;;;;;;;6.93;73.43;98257.28;5273559;27;20023;-95
2024/04/18 06:52:34;;;;;;;0.80;0.80;;;;;;;6.48;74.90;98264.47;5213983;27;20010;-93
2024/04/18 06:55:00;;;;;;;0.80;0.80;;;;;;;6.29;75.25;98259.31;5274337;27;20053;-91
2024/04/18 06:57:41;;;;;;;0.85;0.85;;;;;;;6.15;75.34;98258.78;5249432;27;20013;-91
2024/04/18 07:00:10;;;;;;;0.80;0.80;;;;;;;6.01;76.43;98268.84;5246629;26;20025;-92
2024/04/18 07:02:35;;;;;;;0.80;0.80;;;;;;;5.95;76.36;98265.06;5253943;27;20017;-93
2024/04/18 07:05:20;;;;;;;0.80;0.80;;;;;;;5.88;77.22;98270.03;5245081;27;20084;-92
2024/04/18 07:28:30;;;;;;;0.60;0.60;;;;;;;6.64;73.89;98295.09;6361633;21;1286673;-92
2024/04/18 07:30:55;;;;;;;0.68;0.68;;;;;;;6.88;71.94;98296.00;6376070;22;19990;-91
2024/04/18 07:33:21;;;;;;;0.60;0.60;;;;;;;6.60;72.83;98299.38;6385463;22;19995;-90
2024/04/18 07:36:00;;;;;;;0.70;0.70;;;;;;;6.53;73.65;98307.03;6346458;22;19998;-91
2024/04/18 07:38:26;;;;;;;0.77;0.77;;;;;;;6.39;74.25;98310.06;6349692;22;19998;-93
2024/04/18 07:40:52;;;;;;;0.70;0.70;;;;;;;6.22;74.83;98311.13;6350230;22;20072;-93
2024/04/18 07:43:19;;;;;;;0.70;0.70;;;;;;;6.24;73.99;98309.47;6390692;22;20017;-92
2024/04/18 07:45:45;;;;;;;0.82;0.82;;;;;;;6.28;73.45;98316.69;6349601;22;20002;-91
2024/04/18 07:48:11;;;;;;;0.80;0.80;;;;;;;6.41;74.01;98313.66;6346280;22;19994;-90
2024/04/18 07:50:36;;;;;;;0.80;0.80;;;;;;;6.86;71.38;98313.59;6389548;22;19998;-91
2024/04/18 07:53:01;;;;;;;0.80;0.80;;;;;;;6.84;70.92;98325.00;6435111;22;19994;-92
2024/04/18 07:55:27;;;;;;;0.80;0.80;;;;;;;7.09;70.84;98326.78;6431835;22;20038;-93
2024/04/18 07:57:52;;;;;;;0.80;0.80;;;;;;;7.27;70.02;98324.78;6390491;22;20038;-92
2024/04/18 08:00:18;;;;;;;0.80;0.80;;;;;;;7.55;68.03;98326.66;6395678;22;20004;-90
2024/04/18 08:02:44;;;;;;;0.80;0.80;;;;;;;7.69;68.21;98328.03;6446386;22;20006;-91
2024/04/18 08:05:10;;;;;;;0.80;0.80;;;;;;;8.36;66.27;98329.34;6400547;22;20022;-90
2024/04/18 08:07:36;;;;;;;0.80;0.80;;;;;;;8.57;65.12;98333.53;6397602;22;20066;-92
2024/04/18 08:10:02;;;;;;;0.70;0.70;;;;;;;9.47;61.83;98326.38;6356670;22;20010;-90
2024/04/18 08:12:27;;;;;;;0.70;0.70;;;;;;;9.59;63.12;98324.91;6366693;22;19990;-92
2024/04/18 08:14:52;;;;;;;0.70;0.70;;;;;;;9.54;62.10;98334.56;6398341;22;20002;-92
2024/04/18 08:17:18;;;;;;;0.65;0.65;;;;;;;9.74;61.27;98330.66;6263018;22;20348;-92
2024/04/18 08:19:43;;;;;;;0.70;0.70;;;;;;;9.32;60.99;98333.06;6299687;22;20033;-92
2024/04/18 08:22:09;;;;;;;0.70;0.70;;;;;;;9.49;61.34;98337.09;6293519;22;19996;-91
2024/04/18 08:24:35;;;;;;;0.70;0.70;;;;;;;9.74;61.17;98346.63;6286152;22;20000;-92
2024/04/18 08:27:07;;;;;;;0.80;0.80;;;;;;;10.92;58.06;98342.38;6287474;22;20085;-92
2024/04/18 08:29:32;;;;;;;0.60;0.60;;;;;;;10.40;58.59;98337.63;6289196;22;20037;-92
2024/04/18 08:31:58;;;;;;;0.60;0.60;;;;;;;9.97;60.04;98348.13;6285641;22;20015;-91
2024/04/18 08:34:24;;;;;;;0.60;0.60;;;;;;;9.76;61.50;98352.88;6205754;22;20049;-92
2024/04/18 08:36:49;;;;;;;0.60;0.60;;;;;;;9.26;61.61;98360.41;6205611;22;20008;-92
2024/04/18 08:39:15;;;;;;;0.60;0.60;;;;;;;8.50;63.78;98364.34;6286525;22;20016;-93
2024/04/18 08:41:43;;;;;;;0.70;0.70;;;;;;;8.22;64.95;98365.19;6286941;22;20012;-91
2024/04/18 08:44:08;;;;;;;;;;;;;;;8.46;64.72;98371.31;6244274;22;20033;-91
2024/04/18 08:46:38;;;;;;;0.70;0.70;;;;;;;8.41;64.64;98367.63;6246923;22;19924;-93
2024/04/18 08:49:06;;;;;;;0.70;0.70;;;;;;;8.11;65.35;98370.16;6290281;22;20000;-93
2024/04/18 08:51:36;;;;;;;0.70;0.70;;;;;;;8.08;64.43;98375.38;6249708;22;19999;-92
2024/04/18 08:54:03;;;;;;;0.70;0.70;;;;;;;7.97;65.95;98377.66;6298031;22;20008;-92
2024/04/18 08:56:32;;;;;;;0.70;0.70;;;;;;;7.84;66.03;98375.44;6216545;22;20004;-92
2024/04/18 08:58:58;;;;;;;0.80;0.80;;;;;;;7.62;66.69;98371.16;6257973;22;19993;-91
2024/04/18 09:01:24;;;;;;;0.80;0.80;;;;;;;7.52;67.69;98381.38;6257743;22;19993;-91
2024/04/18 09:03:55;;;;;;;0.80;0.80;;;;;;;7.31;69.42;98379.78;6216670;22;20000;-91
2024/04/18 09:06:21;;;;;;;0.80;0.80;;;;;;;7.36;69.62;98386.16;6254745;22;20079;-91
2024/04/18 09:08:50;;;;;;;0.80;0.80;;;;;;;7.53;68.92;98380.56;6255323;22;20287;-91
2024/04/18 09:11:16;;;;;;;0.80;0.80;;;;;;;7.62;69.57;98395.06;6253073;22;19997;-91
2024/04/18 09:13:41;;;;;;;0.80;0.80;;;;;;;7.76;68.78;98387.59;6292640;22;20013;-91
2024/04/18 09:16:07;;;;;;;1.00;1.00;;;;;;;8.30;65.27;98384.97;6247531;22;20004;-91
2024/04/18 09:18:35;;;;;;;0.98;0.98;;;;;;;10.74;57.27;98374.00;6206321;22;20011;-90
2024/04/18 09:21:02;;;;;;;0.80;0.80;;;;;;;11.96;52.53;98367.56;6208217;22;20020;-92
2024/04/18 09:23:32;;;;;;;0.90;0.90;;;;;;;13.26;51.11;98362.44;6287455;22;20008;-93
2024/04/18 09:25:57;;;;;;;0.80;0.80;;;;;;;14.58;46.65;98359.31;6244083;22;20012;-91
2024/04/18 09:28:24;;;;;;;0.57;0.57;;;;;;;15.46;43.80;98351.72;6244614;22;20009;-92
2024/04/18 09:30:54;;;;;;;0.60;0.60;;;;;;;14.03;44.69;98360.59;6244646;22;20000;-91
2024/04/18 09:33:23;;;;;;;0.47;0.47;;;;;;;11.97;50.50;98369.38;6288420;22;20072;-90
2024/04/18 09:35:50;;;;;;;0.40;0.40;;;;;;;11.52;52.82;98365.84;6246352;22;20017;-91
2024/04/18 09:38:19;;;;;;;0.50;0.50;;;;;;;11.68;51.32;98371.47;6287545;22;20016;-91
2024/04/18 09:41:03;;;;;;;0.50;0.50;;;;;;;11.06;53.36;98377.34;6253331;22;20001;-92
2024/04/18 09:43:44;;;;;;;0.50;0.50;;;;;;;10.22;58.84;98380.72;6295029;22;19997;-93
2024/04/18 09:46:15;;;;;;;0.60;0.60;;;;;;;9.59;58.53;98388.84;6256313;22;20008;-92
2024/04/18 09:48:42;;;;;;;0.50;0.50;;;;;;;9.28;59.12;98392.38;6252167;22;20005;-92
2024/04/18 09:51:09;;;;;;;0.63;0.63;;;;;;;8.80;59.77;98398.97;6215374;22;19996;-92
2024/04/18 09:53:40;;;;;;;0.70;0.70;;;;;;;8.68;59.97;98383.53;6298516;22;19988;-91
2024/04/18 09:56:08;;;;;;;0.70;0.70;;;;;;;8.44;63.19;98415.59;6297737;22;19988;-93
2024/04/18 09:58:36;;;;;;;0.70;0.70;;;;;;;8.57;64.26;98424.81;6295294;22;20001;-92
2024/04/18 10:01:02;;;;;;;0.80;0.80;;;;;;;8.50;63.66;98425.50;6217243;22;20077;-93
2024/04/18 10:03:28;;;;;;;0.80;0.80;;;;;;;8.66;62.73;98429.53;6255827;22;20008;-93
2024/04/18 10:06:01;;;;;;;0.90;0.90;;;;;;;9.27;62.04;98434.09;6182207;22;20245;-92
2024/04/18 10:08:35;;;;;;;0.80;0.80;;;;;;;9.98;59.42;98427.22;6178939;22;20032;-93
2024/04/18 10:11:02;;;;;;;0.80;0.80;;;;;;;9.31;62.70;98432.44;6252195;22;19997;-94
2024/04/18 10:13:38;;;;;;;;;;;;;;;11.09;58.70;98428.16;6215895;22;20011;-93
2024/04/18 10:16:09;;;;;;;0.90;0.90;;;;;;;13.71;49.97;98417.50;6329089;22;19924;-96
2024/04/18 10:18:36;;;;;;;0.80;0.80;;;;;;;14.88;45.54;98412.34;6247063;22;20373;-94
2024/04/18 10:21:21;;;;;;;0.70;0.70;;;;;;;14.88;48.72;98411.44;6212988;22;19997;-94
2024/04/18 10:23:51;;;;;;;0.57;0.57;;;;;;;15.38;46.13;98406.38;6244641;22;20001;-93
2024/04/18 10:26:18;;;;;;;0.50;0.50;;;;;;;13.12;48.57;98417.59;6243951;22;20057;-93
2024/04/18 10:28:45;;;;;;;0.60;0.60;;;;;;;11.38;53.86;98426.09;6283319;22;20004;-92
2024/04/18 10:31:12;;;;;;;0.60;0.60;;;;;;;11.25;55.06;98429.38;6199282;22;20001;-92
2024/04/18 10:33:40;;;;;;;1.00;1.00;;;;;;;11.96;51.80;98427.28;6278677;22;20008;-92
2024/04/18 10:36:13;;;;;;;0.88;0.88;;;;;;;12.92;49.47;98419.97;6198193;22;20004;-92
2024/04/18 10:38:46;;;;;;;0.70;0.70;;;;;;;13.45;48.48;98421.63;6278439;22;20017;-91
2024/04/18 10:41:17;;;;;;;0.70;0.70;;;;;;;15.45;43.08;98417.16;6217198;22;20004;-91
2024/04/18 10:43:43;;;;;;;0.50;0.50;;;;;;;14.08;45.66;98420.56;6272407;22;20097;-92
2024/04/18 10:46:13;;;;;;;0.40;0.40;;;;;;;11.67;49.53;98421.34;6242594;22;20084;-91
2024/04/18 10:48:41;;;;;;;0.40;0.40;;;;;;;12.23;48.79;98424.22;6279521;22;20001;-93
2024/04/18 10:51:07;;;;;;;0.50;0.50;;;;;;;12.29;46.82;98413.63;6277866;22;20008;-92
2024/04/18 10:53:37;;;;;;;0.80;0.80;;;;;;;14.41;42.59;98414.63;6236288;22;20001;-91
2024/04/18 10:56:03;;;;;;;0.50;0.50;;;;;;;13.03;45.22;98423.75;6282641;22;19996;-93
2024/04/18 10:58:29;;;;;;;0.50;0.50;;;;;;;12.32;48.65;98429.75;6237806;22;20004;-92
2024/04/18 11:01:04;;;;;;;0.75;0.75;;;;;;;13.06;46.99;98422.88;6237363;22;20011;-92
2024/04/18 11:03:30;;;;;;;0.80;0.80;;;;;;;14.58;41.54;98423.75;6277720;22;20001;-93
2024/04/18 11:05:57;;;;;;;0.70;0.70;;;;;;;15.54;40.00;98414.50;6236413;22;20016;-92
2024/04/18 11:08:26;;;;;;;0.50;0.50;;;;;;;16.93;37.85;98401.31;6240174;22;19997;-92
2024/04/18 11:10:52;;;;;;;0.40;0.40;;;;;;;15.72;39.99;98411.03;6239170;22;20000;-92
2024/04/18 11:13:18;;;;;;;0.40;0.40;;;;;;;14.39;40.72;98416.41;6199489;22;20057;-92
2024/04/18 11:15:44;;;;;;;0.40;0.40;;;;;;;12.78;42.87;98426.91;6285614;22;20001;-93
2024/04/18 11:18:09;;;;;;;0.40;0.40;;;;;;;11.85;47.45;98433.31;6284416;22;20012;-92
2024/04/18 11:20:35;;;;;;;0.70;0.70;;;;;;;13.84;42.70;98410.47;6282839;22;19997;-93
2024/04/18 11:23:05;;;;;;;0.68;0.68;;;;;;;16.19;37.38;98408.44;6203040;22;20012;-91
2024/04/18 11:25:32;;;;;;;0.60;0.60;;;;;;;17.66;33.33;98393.00;6283427;22;20011;-93
2024/04/18 11:28:04;;;;;;;0.60;0.60;;;;;;;19.12;31.22;98398.28;6202539;22;20010;-92
2024/04/18 11:30:30;;;;;;;0.50;0.50;;;;;;;20.24;29.29;98388.78;6242680;22;20081;-92
2024/04/18 11:32:56;;;;;;;0.30;0.30;;;;;;;20.62;27.99;98384.59;6236187;22;20000;-91
2024/04/18 11:35:21;;;;;;;0.30;0.30;;;;;;;16.62;34.86;98409.41;6277168;22;20019;-92
2024/04/18 11:37:47;;;;;;;0.20;0.20;;;;;;;13.97;42.66;98406.16;6237110;22;20087;-91
2024/04/18 11:40:13;;;;;;;0.30;0.30;;;;;;;12.61;44.96;98413.28;6240501;22;20004;-92
2024/04/18 11:42:40;;;;;;;0.40;0.40;;;;;;;12.16;46.18;98430.31;6281774;22;20000;-93
2024/04/18 11:45:06;;;;;;;0.50;0.50;;;;;;;11.82;47.42;98427.03;6237200;22;20011;-94
2024/04/18 11:47:33;;;;;;;0.50;0.50;;;;;;;11.50;47.91;98423.69;6197527;22;20322;-93
2024/04/18 11:50:01;;;;;;;0.60;0.60;;;;;;;10.98;49.74;98438.59;6238352;22;20005;-93
2024/04/18 11:52:26;;;;;;;0.50;0.50;;;;;;;11.24;50.69;98438.25;6278643;22;20001;-93
2024/04/18 11:54:56;;;;;;;0.52;0.52;;;;;;;11.11;51.55;98436.19;6281550;22;20001;-93
2024/04/18 11:57:35;;;;;;;0.60;0.60;;;;;;;10.90;52.51;98436.63;6243543;22;20005;-95
2024/04/18 12:00:05;;;;;;;0.52;0.52;;;;;;;9.87;54.71;98443.75;6289548;22;20008;-93
2024/04/18 12:02:51;;;;;;;0.52;0.52;;;;;;;9.94;55.57;98443.97;6287099;22;20024;-93
2024/04/18 12:05:20;;;;;;;0.60;0.60;;;;;;;9.46;56.82;98444.41;6286483;22;20004;-93
2024/04/18 12:07:50;;;;;;;0.60;0.60;;;;;;;9.87;55.63;98442.00;6246469;22;19997;-93
2024/04/18 12:10:28;;;;;;;0.60;0.60;;;;;;;10.19;54.52;98453.50;6210798;22;20004;-94
2024/04/18 12:13:01;;;;;;;0.60;0.60;;;;;;;10.83;53.74;98456.00;6208134;22;20000;-94
2024/04/18 12:15:33;;;;;;;0.60;0.60;;;;;;;10.97;51.72;98450.16;6246594;22;20099;-94